Time;durP1;ratioP1;P1;durP2;ratioP2;P2;SDS_P1;SDS_P2;PMS_P1;PMS_P2;Temp;Humidity;BMP_temperature;BMP_pressure;BME280_temperature;BME280_humidity;BME280_pressure;Samples;Min_cycle;Max_cycle;Signal;HPM_P1;HPM_P2
2022/10/24 00:01:11;;;;;;;0.10;0.10;;;;;;;14.69;100.00;100342.59;5060783;28;20115;-69
2022/10/24 00:03:37;;;;;;;0.10;0.10;;;;;;;14.70;100.00;100351.53;5021625;28;20028;-70
2022/10/24 00:06:04;;;;;;;0.10;0.10;;;;;;;14.59;100.00;100352.63;5060207;28;20093;-72
2022/10/24 00:08:30;;;;;;;0.10;0.10;;;;;;;14.89;100.00;100349.63;5057676;28;20526;-70
2022/10/24 00:10:55;;;;;;;0.10;0.10;;;;;;;14.79;100.00;100322.72;5040840;28;20040;-72
2022/10/24 00:13:20;;;;;;;0.03;0.03;;;;;;;15.07;100.00;100336.03;5060451;28;20028;-71
2022/10/24 00:15:47;;;;;;;0.10;0.10;;;;;;;14.93;100.00;100338.34;5042874;28;20032;-69
2022/10/24 00:18:13;;;;;;;0.00;0.00;;;;;;;15.12;100.00;100348.06;5026541;28;20024;-71
2022/10/24 00:20:39;;;;;;;0.10;0.10;;;;;;;15.19;100.00;100345.56;5041992;28;20027;-70
2022/10/24 00:23:05;;;;;;;0.10;0.10;;;;;;;15.21;100.00;100334.59;5038010;28;20037;-73
2022/10/24 00:25:30;;;;;;;0.05;0.05;;;;;;;15.18;100.00;100343.88;5038390;28;20035;-70
2022/10/24 00:27:55;;;;;;;0.10;0.10;;;;;;;15.17;100.00;100308.88;5029478;28;20050;-71
2022/10/24 00:30:21;;;;;;;0.00;0.00;;;;;;;15.38;100.00;100316.56;5060025;28;20688;-70
2022/10/24 00:32:46;;;;;;;0.10;0.10;;;;;;;14.95;100.00;100330.94;5036445;28;20036;-71
2022/10/24 00:35:11;;;;;;;0.10;0.10;;;;;;;15.07;100.00;100328.78;5057924;28;20444;-70
2022/10/24 00:37:37;;;;;;;0.08;0.08;;;;;;;15.21;100.00;100324.63;5060212;28;20229;-71
2022/10/24 00:40:04;;;;;;;0.10;0.10;;;;;;;15.34;100.00;100339.53;5054190;28;20164;-72
2022/10/24 00:42:29;;;;;;;0.00;0.00;;;;;;;15.27;100.00;100325.81;5056430;28;20115;-74
2022/10/24 00:44:54;;;;;;;0.10;0.10;;;;;;;15.29;100.00;100323.81;5040854;28;20035;-73
2022/10/24 00:47:22;;;;;;;0.10;0.10;;;;;;;15.12;100.00;100329.13;5055826;28;20040;-70
2022/10/24 00:49:50;;;;;;;0.03;0.03;;;;;;;15.20;100.00;100316.66;5037093;28;20333;-71
2022/10/24 00:52:23;;;;;;;0.10;0.10;;;;;;;15.11;100.00;100319.31;5060873;28;20028;-72
2022/10/24 00:54:49;;;;;;;0.10;0.10;;;;;;;15.30;100.00;100329.03;5037898;28;20039;-73
2022/10/24 00:57:23;;;;;;;0.20;0.17;;;;;;;15.18;100.00;100316.84;5039144;28;20040;-73
2022/10/24 00:59:52;;;;;;;0.10;0.10;;;;;;;15.22;100.00;100322.75;5038149;28;20036;-73
2022/10/24 01:02:17;;;;;;;0.10;0.10;;;;;;;15.19;100.00;100321.25;5037729;28;20491;-69
2022/10/24 01:04:45;;;;;;;0.00;0.00;;;;;;;15.24;100.00;100318.03;5036328;28;20036;-74
2022/10/24 01:07:28;;;;;;;0.70;0.10;;;;;;;15.23;100.00;100308.22;5059152;28;20044;-71
2022/10/24 01:10:16;;;;;;;0.10;0.10;;;;;;;14.96;100.00;100316.38;5035802;28;20024;-70
2022/10/24 01:12:48;;;;;;;0.10;0.10;;;;;;;14.82;100.00;100311.59;5038146;28;20028;-69
2022/10/24 01:15:41;;;;;;;0.10;0.10;;;;;;;15.04;100.00;100312.03;5055161;28;20036;-70
2022/10/24 01:18:18;;;;;;;0.10;0.10;;;;;;;14.93;100.00;100305.91;5037226;28;20437;-70
2022/10/24 01:21:11;;;;;;;0.00;0.00;;;;;;;14.45;100.00;100294.63;5054235;28;20028;-70
2022/10/24 01:23:49;;;;;;;0.10;0.10;;;;;;;14.69;100.00;100310.19;5053211;28;20047;-69
2022/10/24 01:26:36;;;;;;;0.10;0.10;;;;;;;14.79;100.00;100317.31;5056084;28;20024;-73
2022/10/24 01:29:28;;;;;;;0.10;0.10;;;;;;;14.89;100.00;100317.19;5058755;28;20032;-76
2022/10/24 01:32:11;;;;;;;0.10;0.10;;;;;;;14.99;100.00;100310.66;5011056;28;20041;-73
2022/10/24 01:34:45;;;;;;;0.10;0.10;;;;;;;15.05;100.00;100306.47;5033815;28;20062;-71
2022/10/24 01:37:21;;;;;;;0.10;0.10;;;;;;;15.06;100.00;100297.34;5037421;28;20127;-73
2022/10/24 01:39:49;;;;;;;0.10;0.10;;;;;;;15.06;100.00;100288.38;5040903;28;20020;-72
2022/10/24 01:42:16;;;;;;;0.10;0.10;;;;;;;14.37;100.00;100194.63;5038276;28;20049;-72
2022/10/24 01:44:46;;;;;;;0.10;0.10;;;;;;;14.96;100.00;100297.44;5022108;28;20130;-73
2022/10/24 01:47:16;;;;;;;0.10;0.10;;;;;;;14.91;100.00;100307.06;5041511;28;20055;-72
2022/10/24 01:49:45;;;;;;;0.10;0.10;;;;;;;14.95;100.00;100295.78;5036531;28;20044;-70
2022/10/24 01:52:13;;;;;;;0.10;0.10;;;;;;;14.97;100.00;100263.19;5039847;28;20074;-73
2022/10/24 01:54:39;;;;;;;0.10;0.10;;;;;;;14.85;100.00;100278.84;5043115;28;20040;-73
2022/10/24 01:57:06;;;;;;;0.10;0.10;;;;;;;14.93;100.00;100272.63;5039074;28;20745;-76
2022/10/24 01:59:31;;;;;;;0.10;0.10;;;;;;;15.09;98.84;100277.25;5021650;28;20032;-73
2022/10/24 02:02:03;;;;;;;0.10;0.10;;;;;;;15.00;98.28;100269.09;5055172;28;20041;-74
2022/10/24 02:04:31;;;;;;;0.00;0.00;;;;;;;15.11;97.14;100262.53;5040892;28;20533;-76
2022/10/24 02:07:00;;;;;;;0.00;0.00;;;;;;;15.29;96.29;100281.38;5031588;28;20039;-73
2022/10/24 02:09:27;;;;;;;0.10;0.10;;;;;;;15.33;95.26;100276.50;5038427;28;20040;-75
2022/10/24 02:11:55;;;;;;;0.00;0.00;;;;;;;15.27;95.56;100260.91;5026481;28;20496;-77
2022/10/24 02:14:34;;;;;;;0.10;0.10;;;;;;;15.39;94.35;100256.03;5028219;28;20029;-73
2022/10/24 02:17:00;;;;;;;0.00;0.00;;;;;;;15.33;94.84;100259.41;5035163;23;20044;-72
2022/10/24 02:19:25;;;;;;;0.00;0.00;;;;;;;15.23;94.09;100254.16;5013876;28;20036;-74
2022/10/24 02:22:10;;;;;;;0.00;0.00;;;;;;;15.27;93.83;100242.00;5022213;28;20388;-73
2022/10/24 02:24:51;;;;;;;0.03;0.03;;;;;;;15.06;94.49;100254.09;5029849;28;20045;-76
2022/10/24 02:27:23;;;;;;;0.10;0.10;;;;;;;15.23;94.54;100270.38;5025456;28;20065;-74
2022/10/24 02:29:59;;;;;;;0.00;0.00;;;;;;;15.31;93.78;100270.41;5011888;28;20025;-71
2022/10/24 02:32:32;;;;;;;0.03;0.03;;;;;;;15.28;93.37;100259.91;5015367;28;20036;-76
2022/10/24 02:34:58;;;;;;;0.10;0.10;;;;;;;15.27;92.91;100252.81;5019707;28;20464;-76
2022/10/24 02:37:24;;;;;;;0.17;0.10;;;;;;;15.51;91.10;100248.47;5018464;28;20029;-71
2022/10/24 02:39:51;;;;;;;0.10;0.10;;;;;;;15.51;90.63;100253.88;5022820;28;20077;-72
2022/10/24 02:42:17;;;;;;;0.03;0.03;;;;;;;15.57;90.32;100245.09;5016263;28;20071;-75
2022/10/24 02:44:45;;;;;;;0.03;0.03;;;;;;;15.35;90.78;100236.59;5025044;28;20120;-76
2022/10/24 02:47:11;;;;;;;0.00;0.00;;;;;;;15.44;90.04;100232.88;5017651;28;20036;-73
2022/10/24 02:49:37;;;;;;;0.00;0.00;;;;;;;15.44;90.16;100245.59;5007945;28;20447;-75
2022/10/24 02:52:03;;;;;;;0.03;0.03;;;;;;;15.28;90.77;100249.09;5022325;28;20033;-74
2022/10/24 02:54:28;;;;;;;0.03;0.03;;;;;;;15.39;90.79;100256.03;5004019;28;20061;-76
2022/10/24 02:56:59;;;;;;;0.00;0.00;;;;;;;15.29;91.39;100265.13;5022132;28;20025;-72
2022/10/24 02:59:24;;;;;;;0.00;0.00;;;;;;;15.11;92.39;100251.72;5015017;28;20405;-73
2022/10/24 03:01:50;;;;;;;0.10;0.10;;;;;;;14.98;92.70;100263.00;5021447;28;20539;-76
2022/10/24 03:04:15;;;;;;;0.10;0.10;;;;;;;15.11;91.31;100248.19;5017213;28;20045;-75
2022/10/24 03:06:41;;;;;;;0.03;0.03;;;;;;;15.25;90.87;100268.34;5018362;28;20037;-75
2022/10/24 03:09:06;;;;;;;0.00;0.00;;;;;;;15.54;88.08;100262.50;5023023;28;20040;-74
2022/10/24 03:11:32;;;;;;;0.10;0.10;;;;;;;15.64;87.36;100265.03;5022013;28;20033;-73
2022/10/24 03:13:57;;;;;;;0.05;0.05;;;;;;;15.52;87.43;100242.88;5019974;28;20664;-76
2022/10/24 03:16:23;;;;;;;0.00;0.00;;;;;;;15.39;87.80;100235.25;4999464;28;20073;-74
2022/10/24 03:18:49;;;;;;;0.00;0.00;;;;;;;15.68;87.04;100273.69;5001963;28;20033;-70
2022/10/24 03:21:14;;;;;;;0.00;0.00;;;;;;;15.60;86.71;100263.72;5018340;28;20032;-73
2022/10/24 03:23:39;;;;;;;0.10;0.10;;;;;;;15.58;86.89;100265.72;5018492;28;20029;-72
2022/10/24 03:26:05;;;;;;;0.10;0.10;;;;;;;15.66;86.56;100281.13;5022909;28;20120;-72
2022/10/24 03:28:30;;;;;;;0.10;0.10;;;;;;;15.59;87.41;100270.13;5018140;28;20883;-71
2022/10/24 03:30:55;;;;;;;0.00;0.00;;;;;;;15.39;87.85;100251.47;5015689;28;20022;-73
2022/10/24 03:33:21;;;;;;;0.10;0.10;;;;;;;15.43;87.96;100279.88;5014513;28;20160;-73
2022/10/24 03:35:51;;;;;;;0.00;0.00;;;;;;;15.49;87.94;100280.25;5005644;28;20025;-74
2022/10/24 03:38:16;;;;;;;0.00;0.00;;;;;;;15.49;87.46;100277.53;5013759;28;20239;-72
2022/10/24 03:40:41;;;;;;;0.10;0.10;;;;;;;15.45;86.82;100252.69;5021461;28;21223;-74
2022/10/24 03:43:07;;;;;;;0.00;0.00;;;;;;;15.62;85.75;100253.56;5011904;28;20478;-72
2022/10/24 03:45:32;;;;;;;0.10;0.10;;;;;;;15.58;86.17;100255.75;5023877;28;20267;-72
2022/10/24 03:47:58;;;;;;;0.00;0.00;;;;;;;15.39;87.24;100248.75;5029794;28;20067;-73
2022/10/24 03:50:23;;;;;;;0.00;0.00;;;;;;;15.35;87.30;100236.59;5035251;28;20025;-71
2022/10/24 03:52:48;;;;;;;0.10;0.10;;;;;;;15.40;88.04;100261.28;5024605;28;20080;-74
2022/10/24 03:55:14;;;;;;;0.03;0.03;;;;;;;15.21;88.51;100240.81;5022569;28;20049;-72
2022/10/24 03:57:39;;;;;;;0.00;0.00;;;;;;;15.31;88.14;100237.94;5017799;28;20033;-71
2022/10/24 04:00:05;;;;;;;0.00;0.00;;;;;;;15.26;88.12;100216.78;5016375;28;20075;-69
2022/10/24 04:02:30;;;;;;;0.00;0.00;;;;;;;15.45;87.94;100258.09;5014013;28;20057;-72
2022/10/24 04:04:56;;;;;;;0.00;0.00;;;;;;;15.33;88.45;100251.28;5017587;28;20061;-73
2022/10/24 04:07:21;;;;;;;0.03;0.03;;;;;;;15.27;89.32;100266.34;5013386;28;20507;-75
2022/10/24 04:09:47;;;;;;;0.10;0.10;;;;;;;15.22;89.84;100255.16;5002936;28;20037;-72
2022/10/24 04:12:12;;;;;;;0.00;0.00;;;;;;;15.28;89.98;100254.50;5015852;28;20017;-72
2022/10/24 04:14:37;;;;;;;0.00;0.00;;;;;;;15.15;90.70;100268.50;5013644;28;20455;-72
2022/10/24 04:17:03;;;;;;;0.10;0.10;;;;;;;15.13;89.79;100235.34;5012766;28;20038;-72
2022/10/24 04:19:28;;;;;;;0.10;0.10;;;;;;;14.95;91.81;100260.66;5016003;28;20118;-72
2022/10/24 04:21:53;;;;;;;0.10;0.10;;;;;;;15.04;90.89;100253.41;5017807;28;20148;-70
2022/10/24 04:24:19;;;;;;;0.00;0.00;;;;;;;15.33;89.79;100267.53;5012330;28;20048;-72
2022/10/24 04:26:44;;;;;;;0.10;0.10;;;;;;;15.30;89.87;100279.53;5013679;28;20043;-71
2022/10/24 04:29:10;;;;;;;0.10;0.10;;;;;;;15.43;88.69;100252.84;5014437;28;20030;-73
2022/10/24 04:31:35;;;;;;;0.10;0.10;;;;;;;15.16;89.23;100235.03;5013863;28;20488;-70
2022/10/24 04:34:01;;;;;;;0.00;0.00;;;;;;;15.45;88.67;100256.22;5018832;28;20072;-72
2022/10/24 04:36:26;;;;;;;0.08;0.08;;;;;;;15.13;90.10;100243.47;5015473;28;20450;-69
2022/10/24 04:38:51;;;;;;;0.10;0.10;;;;;;;15.30;89.58;100263.31;5019336;28;20128;-71
2022/10/24 04:41:17;;;;;;;0.00;0.00;;;;;;;15.06;90.13;100240.59;5016183;28;20021;-70
2022/10/24 04:43:42;;;;;;;0.00;0.00;;;;;;;15.34;89.79;100261.09;5017768;28;20061;-69
2022/10/24 04:46:07;;;;;;;0.00;0.00;;;;;;;15.33;89.26;100260.28;5017461;28;20037;-71
2022/10/24 04:48:33;;;;;;;0.10;0.10;;;;;;;15.27;89.31;100228.47;5009711;28;20060;-69
2022/10/24 04:50:58;;;;;;;0.00;0.00;;;;;;;15.37;88.45;100260.78;5013950;28;20123;-71
2022/10/24 04:53:24;;;;;;;0.00;0.00;;;;;;;15.18;89.15;100241.13;5004770;28;20033;-73
2022/10/24 04:55:49;;;;;;;0.00;0.00;;;;;;;15.23;89.17;100257.69;5021442;28;20040;-70
2022/10/24 04:58:14;;;;;;;0.00;0.00;;;;;;;15.35;87.93;100260.09;5001649;28;20118;-72
2022/10/24 05:00:42;;;;;;;0.00;0.00;;;;;;;15.25;88.68;100266.47;5017476;28;20067;-71
2022/10/24 05:03:07;;;;;;;0.10;0.10;;;;;;;15.21;88.33;100240.81;5012018;28;20035;-73
2022/10/24 05:05:32;;;;;;;0.10;0.10;;;;;;;15.28;88.72;100265.31;5001184;28;20048;-70
2022/10/24 05:07:58;;;;;;;0.00;0.00;;;;;;;15.31;88.74;100275.81;5015299;28;20075;-70
2022/10/24 05:10:23;;;;;;;0.10;0.10;;;;;;;15.00;89.55;100255.56;5019451;28;20044;-74
2022/10/24 05:12:48;;;;;;;0.00;0.00;;;;;;;15.14;89.53;100270.34;5002739;28;20568;-76
2022/10/24 05:15:14;;;;;;;0.10;0.10;;;;;;;15.36;88.64;100272.59;5019830;28;20036;-71
2022/10/24 05:17:39;;;;;;;0.10;0.10;;;;;;;15.26;89.73;100262.75;5013775;28;20442;-72
2022/10/24 05:20:06;;;;;;;0.10;0.10;;;;;;;15.19;90.42;100269.00;5015552;28;20076;-70
2022/10/24 05:22:31;;;;;;;0.00;0.00;;;;;;;15.05;91.26;100275.88;5017738;28;20962;-75
2022/10/24 05:24:56;;;;;;;0.10;0.10;;;;;;;15.24;90.24;100267.47;5010364;28;20032;-69
2022/10/24 05:27:23;;;;;;;0.03;0.03;;;;;;;15.12;90.45;100264.25;5018177;28;20108;-72
2022/10/24 05:29:53;;;;;;;0.10;0.10;;;;;;;15.02;91.47;100281.59;5017721;28;20030;-72
2022/10/24 05:32:19;;;;;;;0.10;0.10;;;;;;;15.14;91.00;100286.56;5016982;28;20350;-75
2022/10/24 05:34:44;;;;;;;0.10;0.10;;;;;;;15.13;91.83;100289.44;5021553;28;20112;-71
2022/10/24 05:37:10;;;;;;;0.10;0.10;;;;;;;14.99;92.61;100294.44;5018089;28;20034;-72
2022/10/24 05:39:35;;;;;;;0.00;0.00;;;;;;;15.08;92.42;100287.22;4996742;28;22165;-72
2022/10/24 05:42:00;;;;;;;0.08;0.08;;;;;;;15.24;91.44;100272.91;5013126;28;20029;-71
2022/10/24 05:44:26;;;;;;;0.10;0.10;;;;;;;15.22;91.42;100293.88;5019694;28;20029;-71
2022/10/24 05:46:51;;;;;;;0.10;0.10;;;;;;;15.02;92.65;100279.75;5023895;28;20025;-71
2022/10/24 05:49:17;;;;;;;0.10;0.10;;;;;;;15.11;91.89;100276.06;5016829;28;20073;-72
2022/10/24 05:51:42;;;;;;;0.10;0.10;;;;;;;15.23;92.12;100287.44;5015311;28;20061;-72
2022/10/24 05:54:07;;;;;;;0.10;0.10;;;;;;;14.97;93.71;100277.53;5023592;28;20037;-70
2022/10/24 05:56:33;;;;;;;0.10;0.10;;;;;;;14.99;92.83;100262.00;5016959;28;20072;-70
2022/10/24 05:58:58;;;;;;;0.00;0.00;;;;;;;15.28;92.26;100293.19;5015575;28;20026;-70
2022/10/24 06:01:23;;;;;;;0.10;0.10;;;;;;;15.26;91.62;100280.88;5015390;28;20029;-72
2022/10/24 06:03:49;;;;;;;0.10;0.10;;;;;;;15.34;92.19;100307.94;5001056;28;20033;-70
2022/10/24 06:06:15;;;;;;;0.00;0.00;;;;;;;15.32;91.85;100298.28;5018869;28;20044;-72
2022/10/24 06:08:40;;;;;;;0.00;0.00;;;;;;;15.27;91.37;100283.38;4996117;28;20794;-69
2022/10/24 06:11:09;;;;;;;0.10;0.10;;;;;;;15.16;92.45;100286.41;5026305;28;20045;-75
2022/10/24 06:13:34;;;;;;;0.10;0.10;;;;;;;15.25;91.94;100301.63;5015567;28;20065;-73
2022/10/24 06:15:59;;;;;;;0.10;0.10;;;;;;;15.16;91.68;100281.00;5019554;28;20485;-77
2022/10/24 06:18:25;;;;;;;0.08;0.08;;;;;;;15.27;90.93;100299.63;5022611;28;20065;-70
2022/10/24 06:20:50;;;;;;;0.10;0.10;;;;;;;15.13;92.29;100290.25;5027441;28;20124;-72
2022/10/24 06:23:15;;;;;;;0.10;0.10;;;;;;;15.00;93.05;100301.53;5021240;28;20059;-76
2022/10/24 06:25:41;;;;;;;0.10;0.10;;;;;;;15.23;91.76;100297.41;5014707;28;20766;-71
2022/10/24 06:28:07;;;;;;;0.00;0.00;;;;;;;15.14;92.38;100310.06;5022431;28;20544;-73
2022/10/24 06:30:33;;;;;;;0.10;0.10;;;;;;;15.09;92.86;100312.38;5021611;28;20021;-73
2022/10/24 06:32:58;;;;;;;0.00;0.00;;;;;;;15.23;91.88;100314.47;5018493;28;20029;-73
2022/10/24 06:35:24;;;;;;;0.00;0.00;;;;;;;15.26;91.92;100313.31;5020897;28;20497;-71
2022/10/24 06:37:49;;;;;;;0.10;0.10;;;;;;;15.08;92.95;100322.38;5023285;28;20026;-71
2022/10/24 06:40:16;;;;;;;0.10;0.10;;;;;;;15.00;91.89;100285.31;5022389;28;20029;-72
2022/10/24 06:42:41;;;;;;;0.00;0.00;;;;;;;15.31;90.91;100319.09;5019535;28;20124;-69
2022/10/24 06:45:07;;;;;;;0.00;0.00;;;;;;;15.09;92.67;100313.25;5022950;28;20040;-73
2022/10/24 06:47:32;;;;;;;0.00;0.00;;;;;;;15.27;92.52;100320.41;5005847;28;20048;-72
2022/10/24 06:49:57;;;;;;;0.10;0.10;;;;;;;15.09;93.26;100324.06;5022165;28;20025;-76
2022/10/24 06:52:23;;;;;;;0.10;0.10;;;;;;;15.03;92.39;100305.78;5028302;28;20041;-75
2022/10/24 06:54:48;;;;;;;0.10;0.10;;;;;;;15.13;92.66;100338.94;5026656;28;20033;-71
2022/10/24 06:57:13;;;;;;;0.10;0.10;;;;;;;15.13;93.09;100349.75;5033628;28;20044;-73
2022/10/24 06:59:39;;;;;;;0.05;0.05;;;;;;;15.17;92.73;100344.03;5023018;28;20424;-73
2022/10/24 07:02:04;;;;;;;0.00;0.00;;;;;;;15.07;93.08;100326.09;5021150;28;20064;-72
2022/10/24 07:04:29;;;;;;;0.10;0.10;;;;;;;15.19;93.44;100356.38;5017420;28;20035;-71
2022/10/24 07:06:55;;;;;;;0.10;0.10;;;;;;;15.26;92.99;100341.19;5019078;28;20139;-73
2022/10/24 07:09:20;;;;;;;0.03;0.03;;;;;;;15.21;93.80;100358.91;5017516;28;20104;-70
2022/10/24 07:11:45;;;;;;;0.10;0.10;;;;;;;15.09;93.91;100325.91;5016289;28;20029;-78
2022/10/24 07:14:11;;;;;;;0.10;0.10;;;;;;;15.17;94.82;100358.41;5022100;28;20040;-72
2022/10/24 07:16:36;;;;;;;0.10;0.10;;;;;;;15.21;94.14;100348.09;5021864;28;20028;-73
2022/10/24 07:19:02;;;;;;;0.00;0.00;;;;;;;15.22;93.42;100345.25;5019317;28;20033;-74
2022/10/24 07:21:29;;;;;;;0.05;0.05;;;;;;;15.32;93.91;100361.34;5012776;28;20480;-71
2022/10/24 07:23:55;;;;;;;0.10;0.10;;;;;;;15.29;93.58;100356.25;5013162;28;20040;-75
2022/10/24 07:26:21;;;;;;;0.05;0.05;;;;;;;15.29;94.27;100351.69;5001485;28;20029;-72
2022/10/24 07:28:52;;;;;;;0.10;0.10;;;;;;;15.41;93.39;100362.22;5012583;28;20022;-74
2022/10/24 07:31:19;;;;;;;0.10;0.10;;;;;;;15.47;92.97;100376.94;5027322;28;20385;-72
2022/10/24 07:33:44;;;;;;;0.10;0.10;;;;;;;15.63;92.60;100365.34;5019198;28;20052;-68
2022/10/24 07:36:14;;;;;;;0.05;0.05;;;;;;;15.53;93.30;100384.41;5020713;28;20517;-75
2022/10/24 07:38:39;;;;;;;0.10;0.10;;;;;;;15.41;94.33;100356.81;5002565;28;20540;-70
2022/10/24 07:41:05;;;;;;;0.10;0.10;;;;;;;15.40;93.92;100347.00;5020156;28;20037;-72
2022/10/24 07:43:31;;;;;;;0.10;0.10;;;;;;;15.50;95.66;100392.84;5016082;28;20048;-74
2022/10/24 07:45:56;;;;;;;0.10;0.10;;;;;;;15.41;93.98;100356.81;5018985;28;20029;-73
2022/10/24 07:48:21;;;;;;;0.10;0.10;;;;;;;15.48;94.99;100375.94;5022874;28;20037;-70
2022/10/24 07:50:47;;;;;;;0.00;0.00;;;;;;;15.45;95.66;100393.34;5015431;28;20132;-72
2022/10/24 07:53:13;;;;;;;0.00;0.00;;;;;;;15.51;95.06;100387.28;5016232;28;20044;-73
2022/10/24 07:55:39;;;;;;;0.00;0.00;;;;;;;15.31;96.29;100370.47;5012639;28;20034;-76
2022/10/24 07:58:05;;;;;;;0.00;0.00;;;;;;;15.28;94.88;100359.97;5013896;28;20037;-72
2022/10/24 08:00:31;;;;;;;0.05;0.05;;;;;;;15.28;96.98;100377.03;5022692;28;20033;-72
2022/10/24 08:02:57;;;;;;;0.10;0.10;;;;;;;15.66;92.99;100378.53;5018140;28;20319;-71
2022/10/24 08:05:22;;;;;;;0.10;0.10;;;;;;;15.75;93.88;100399.22;5017921;28;20485;-69
2022/10/24 08:07:48;;;;;;;0.00;0.00;;;;;;;15.65;94.17;100401.19;5016999;28;20268;-71
2022/10/24 08:10:13;;;;;;;0.00;0.00;;;;;;;15.52;95.13;100398.97;5020224;28;20083;-75
2022/10/24 08:12:39;;;;;;;0.10;0.10;;;;;;;15.65;93.92;100420.16;5011508;28;20029;-74
2022/10/24 08:15:05;;;;;;;0.03;0.03;;;;;;;15.61;95.75;100444.00;5026572;28;20072;-74
2022/10/24 08:17:30;;;;;;;0.10;0.10;;;;;;;15.57;97.05;100459.69;5015263;28;20416;-70
2022/10/24 08:19:55;;;;;;;0.10;0.10;;;;;;;15.31;100.00;100435.38;5024907;28;20139;-74
2022/10/24 08:22:20;;;;;;;0.10;0.10;;;;;;;15.41;100.00;100433.38;5019836;28;20032;-71
2022/10/24 08:24:46;;;;;;;0.10;0.10;;;;;;;15.32;100.00;100431.66;5018576;28;20110;-77
2022/10/24 08:27:11;;;;;;;0.10;0.10;;;;;;;15.45;99.77;100433.94;5017886;28;20105;-72
2022/10/24 08:29:36;;;;;;;0.03;0.03;;;;;;;15.53;98.51;100433.13;5020981;28;20044;-69
2022/10/24 08:32:02;;;;;;;0.00;0.00;;;;;;;15.63;97.04;100433.00;5015411;28;20457;-76
2022/10/24 08:34:27;;;;;;;0.10;0.10;;;;;;;15.72;97.20;100434.72;5020211;28;20026;-76
2022/10/24 08:36:53;;;;;;;0.10;0.10;;;;;;;15.84;96.10;100435.28;5017980;28;20489;-72
2022/10/24 08:39:19;;;;;;;0.10;0.10;;;;;;;15.83;96.51;100447.13;5016311;28;20033;-73
2022/10/24 08:41:49;;;;;;;0.10;0.10;;;;;;;15.64;95.00;100427.41;5014687;28;20034;-75
2022/10/24 08:44:50;;;;;;;0.00;0.00;;;;;;;15.77;95.17;100455.88;5018864;28;20033;-75
2022/10/24 08:47:35;;;;;;;0.10;0.10;;;;;;;15.67;95.24;100442.47;4939500;28;20042;-70
2022/10/24 08:50:22;;;;;;;0.10;0.10;;;;;;;15.89;91.39;100450.03;5018713;28;20161;-70
2022/10/24 08:52:50;;;;;;;0.00;0.00;;;;;;;15.72;93.09;100432.84;5018854;28;20030;-72
2022/10/24 08:55:19;;;;;;;0.10;0.10;;;;;;;16.06;92.75;100460.06;5021116;28;20037;-72
2022/10/24 08:57:49;;;;;;;0.00;0.00;;;;;;;16.30;90.45;100459.25;5017655;28;20227;-75
2022/10/24 09:00:23;;;;;;;0.10;0.10;;;;;;;16.13;89.26;100445.69;5016025;28;20029;-74
2022/10/24 09:03:01;;;;;;;0.10;0.10;;;;;;;16.26;87.94;100474.19;5019760;28;20025;-72
2022/10/24 09:05:35;;;;;;;0.10;0.10;;;;;;;16.59;88.23;100433.56;5019523;28;20544;-75
2022/10/24 09:08:16;;;;;;;0.10;0.10;;;;;;;16.68;85.22;100454.25;5028639;28;20599;-73
2022/10/24 09:10:46;;;;;;;0.10;0.10;;;;;;;16.91;86.20;100453.53;5016837;28;20099;-74
2022/10/24 09:13:15;;;;;;;0.10;0.10;;;;;;;16.99;86.07;100456.28;5017247;28;20545;-74
2022/10/24 09:15:42;;;;;;;0.10;0.10;;;;;;;17.21;82.61;100449.31;5018162;28;20710;-76
2022/10/24 09:18:23;;;;;;;0.10;0.10;;;;;;;17.19;82.43;100474.91;5019402;28;20029;-73
2022/10/24 09:20:49;;;;;;;0.10;0.10;;;;;;;17.17;83.71;100464.25;5017097;28;20033;-70
2022/10/24 09:23:15;;;;;;;0.05;0.05;;;;;;;17.52;82.19;100464.81;5008072;28;20030;-73
2022/10/24 09:25:44;;;;;;;0.00;0.00;;;;;;;17.53;81.84;100496.38;5016250;28;20140;-70
2022/10/24 09:28:09;;;;;;;0.10;0.10;;;;;;;17.25;82.96;100463.38;5017704;28;20079;-76
2022/10/24 09:30:36;;;;;;;0.10;0.10;;;;;;;17.26;82.83;100465.06;5013878;28;20520;-74
2022/10/24 09:33:13;;;;;;;0.10;0.10;;;;;;;16.71;82.63;100496.41;5013936;28;20048;-71
2022/10/24 09:35:38;;;;;;;0.00;0.00;;;;;;;16.62;83.71;100490.13;5028239;28;20421;-74
2022/10/24 09:38:30;;;;;;;0.10;0.10;;;;;;;17.00;82.36;100487.81;5019302;28;20061;-73
2022/10/24 09:40:57;;;;;;;0.00;0.00;;;;;;;17.08;80.28;100487.78;5020985;28;20021;-73
2022/10/24 09:43:37;;;;;;;0.00;0.00;;;;;;;17.34;80.59;100496.75;5022835;28;20037;-74
2022/10/24 09:46:06;;;;;;;0.10;0.10;;;;;;;17.41;80.55;100492.34;5017755;28;20065;-76
2022/10/24 09:48:43;;;;;;;0.00;0.00;;;;;;;17.55;80.55;100482.63;5037129;28;20029;-75
2022/10/24 09:51:20;;;;;;;0.00;0.00;;;;;;;17.66;79.82;100487.69;5017606;28;20038;-73
2022/10/24 09:54:01;;;;;;;0.00;0.00;;;;;;;17.82;78.18;100481.34;5028548;28;20067;-74
2022/10/24 09:56:39;;;;;;;0.10;0.10;;;;;;;17.74;79.79;100492.25;5019019;28;20472;-75
2022/10/24 09:59:29;;;;;;;0.10;0.10;;;;;;;18.06;76.80;100512.16;5020844;28;20033;-76
2022/10/24 10:02:13;;;;;;;0.00;0.00;;;;;;;18.31;74.48;100517.47;5022182;28;20040;-72
2022/10/24 10:04:39;;;;;;;0.10;0.10;;;;;;;18.23;74.06;100522.97;5021072;28;20029;-73
2022/10/24 10:07:10;;;;;;;0.00;0.00;;;;;;;18.12;74.14;100519.59;5023537;28;20029;-72
2022/10/24 10:09:41;;;;;;;0.00;0.00;;;;;;;17.83;75.23;100517.50;5018016;28;20029;-70
2022/10/24 10:12:33;;;;;;;0.00;0.00;;;;;;;18.18;74.29;100526.19;5018456;28;20536;-72
2022/10/24 10:15:00;;;;;;;0.00;0.00;;;;;;;18.31;71.62;100538.38;5025733;28;20057;-72
2022/10/24 10:17:29;;;;;;;0.00;0.00;;;;;;;18.36;72.15;100539.53;5024048;28;20516;-71
2022/10/24 10:19:55;;;;;;;0.10;0.10;;;;;;;18.84;70.31;100542.13;5022579;28;20112;-72
2022/10/24 10:22:31;;;;;;;0.10;0.10;;;;;;;18.74;70.38;100553.22;5019854;28;20059;-71
2022/10/24 10:24:57;;;;;;;0.08;0.08;;;;;;;18.82;69.74;100544.16;5022441;28;20104;-74
2022/10/24 10:27:40;;;;;;;0.10;0.10;;;;;;;19.12;69.22;100527.13;5018374;28;20454;-74
2022/10/24 10:30:06;;;;;;;0.10;0.10;;;;;;;18.82;69.40;100538.72;5013482;28;20461;-74
2022/10/24 10:32:38;;;;;;;0.00;0.00;;;;;;;18.12;70.89;100546.78;5016074;28;20041;-74
2022/10/24 10:35:12;;;;;;;0.00;0.00;;;;;;;17.65;73.09;100553.84;5021542;28;20123;-73
2022/10/24 10:37:43;;;;;;;0.38;0.38;;;;;;;17.84;72.43;100543.63;5015383;28;20028;-73
2022/10/24 10:40:25;;;;;;;0.10;0.10;;;;;;;18.63;70.71;100553.63;5022121;28;20062;-73
2022/10/24 10:42:53;;;;;;;0.10;0.10;;;;;;;18.66;68.55;100576.91;5017118;28;20025;-72
2022/10/24 10:45:29;;;;;;;0.00;0.00;;;;;;;18.28;71.90;100554.00;5024379;28;20034;-73
2022/10/24 10:48:03;;;;;;;0.00;0.00;;;;;;;17.95;72.87;100583.97;5019844;28;20035;-76
2022/10/24 10:50:39;;;;;;;;;;;;;;;18.11;73.48;100571.41;5024252;28;20579;-71
2022/10/24 10:53:35;;;;;;;0.00;0.00;;;;;;;17.76;74.91;100559.94;5021861;28;19982;-72
2022/10/24 10:56:06;;;;;;;0.10;0.10;;;;;;;17.63;75.29;100558.59;5014617;28;20050;-75
2022/10/24 10:58:40;;;;;;;0.10;0.10;;;;;;;17.40;76.27;100566.63;5013653;28;20404;-72
2022/10/24 11:01:40;;;;;;;0.00;0.00;;;;;;;17.63;77.22;100571.34;5019776;28;20148;-73
2022/10/24 11:04:12;;;;;;;0.00;0.00;;;;;;;17.26;77.90;100579.00;5010894;28;20044;-73
2022/10/24 11:06:56;;;;;;;0.00;0.00;;;;;;;17.45;76.60;100588.69;5016708;28;20029;-73
2022/10/24 11:09:23;;;;;;;0.08;0.08;;;;;;;17.93;76.08;100583.31;5019725;28;20076;-72
2022/10/24 11:11:54;;;;;;;0.08;0.08;;;;;;;18.46;74.37;100568.38;5017662;28;20431;-74
2022/10/24 11:14:38;;;;;;;0.08;0.08;;;;;;;18.66;75.25;100598.69;5002849;28;20120;-71
2022/10/24 11:17:06;;;;;;;;;;;;;;;18.33;73.55;100586.06;5021567;28;20029;-74
2022/10/24 11:19:39;;;;;;;0.05;0.05;;;;;;;17.74;72.95;100583.69;5016962;28;19959;-73
2022/10/24 11:22:06;;;;;;;0.00;0.00;;;;;;;17.50;75.51;100586.28;5018827;28;20025;-70
2022/10/24 11:24:39;;;;;;;0.00;0.00;;;;;;;17.31;74.14;100592.06;5014971;28;20060;-73
2022/10/24 11:27:25;;;;;;;;;;;;;;;17.31;75.85;100598.34;5027611;28;20033;-75
2022/10/24 11:30:06;;;;;;;0.00;0.00;;;;;;;17.33;75.49;100606.31;5021727;28;20292;-72
2022/10/24 11:32:54;;;;;;;0.10;0.10;;;;;;;18.40;70.67;100608.81;5018343;28;20034;-73